• Join FlightAware (Why Join?)
  • Login
  • US Flag 
11:45AM EDT


 

Airport Tracker/Info


-or-


 

Live Flight TrackerFlight Track Log ✈ 9V-SKA ✈ 19-Jun-2013 ✈ KJFK - EDDF / FRA

Flight Track Log - Related Links

Times and Time Zones

All times are in EDT time to prevent confusion due to time zone crossing. See the 9V-SKA flight status page for this flight to view local times or setup timezone preferences in your user account.

Time Position Orientation Groundspeed Altitude Reporting Facility
EDT Latitude Longitude Course Direction KTS MPH feet Rate Location/Type
08:11PM 40.6440 -73.7780 33° Northeast  Level FlightAware
08:12PM 40.6430 -73.7780 180° South  Level FlightAware
08:14PM 40.8465 -73.5869 37° Northeast  Level FlightAware Approximate
08:15PM 40.9571 -73.4763 37° Northeast  Level FlightAware Approximate
08:16PM 41.0831 -73.3762 30° Northeast  Level FlightAware Approximate
08:17PM 41.2054 -73.2686 27° Northeast  Level FlightAware Approximate
08:18PM 41.3314 -73.1683 32° Northeast  Level FlightAware Approximate
08:19PM 41.4249 -73.0211 62° Northeast  Level FlightAware Approximate
08:20PM 41.4941 -72.8481 62° Northeast  Level FlightAware Approximate
08:21PM 41.5676 -72.6814 56° Northeast  Level FlightAware Approximate
08:22PM 41.6352 -72.5125 58° Northeast  Level FlightAware Approximate
08:23PM 41.7123 -72.3450 58° Northeast  Level FlightAware Approximate
08:24PM 40.6430 -73.7780 180° South  Level FlightAware
08:26PM 40.8687 -73.5646 37° Northeast  Level FlightAware Approximate
08:27PM 40.9876 -73.4504 30° Northeast  Level FlightAware Approximate
08:28PM 41.1144 -73.3518 30° Northeast  Level FlightAware Approximate
08:29PM 41.2375 -73.2465 32° Northeast  Level FlightAware Approximate
08:30PM 41.3605 -73.1395 37° Northeast  Level FlightAware Approximate
08:31PM 41.4420 -72.9785 62° Northeast  Level FlightAware Approximate
08:32PM 41.5179 -72.8131 66° East  Level FlightAware Approximate
08:33PM 41.5897 -72.6436 37° Northeast  Level FlightAware Approximate
08:34PM 41.6543 -72.4713 58° Northeast  Level FlightAware Approximate
08:35PM 41.7313 -72.3036 58° Northeast  Level FlightAware Approximate
08:36PM 41.8081 -72.1355 58° Northeast  Level FlightAware Approximate
08:37PM 41.8895 -71.9711 56° Northeast  Level FlightAware Approximate
08:38PM 41.9607 -71.7987 67° East  Level FlightAware Approximate
08:39PM 42.0170 -71.6160 61° Northeast  Level FlightAware Approximate
08:40PM 42.0889 -71.4433 61° Northeast  Level FlightAware Approximate
08:41PM 42.1545 -71.2660 64° Northeast  Level FlightAware Approximate
08:42PM 42.2187 -71.0875 64° Northeast  Level FlightAware Approximate
08:43PM 42.2796 -70.9068 67° East  Level FlightAware Approximate
08:44PM 42.3372 -70.7239 67° East  Level FlightAware Approximate
08:44PM 40.6430 -73.7780 90° East  Level FlightAware
08:47PM 40.8843 -73.5490 37° Northeast  Level FlightAware Approximate
08:48PM 41.0045 -73.4373 30° Northeast  Level FlightAware Approximate
08:49PM 41.1302 -73.3365 37° Northeast  Level FlightAware Approximate
08:50PM 41.2542 -73.2327 32° Northeast  Level FlightAware Approximate
08:51PM 41.3746 -73.1215 48° Northeast  Level FlightAware Approximate
08:52PM 41.4512 -72.9554 62° Northeast  Level FlightAware Approximate
08:53PM 41.5258 -72.7892 66° East  Level FlightAware Approximate
08:54PM 41.6028 -72.6251 66° East  Level FlightAware Approximate
08:55PM 40.6440 -73.7770 90° East 11 13  Level FlightAware
08:55PM 40.6430 -73.7770 180° South 12 14  Level FlightAware
08:56PM 40.6430 -73.7760 90° East 13 15  Level FlightAware
08:57PM 40.6420 -73.7760 180° South 11 13  Level FlightAware
08:59PM 40.8098 -73.6118 21° North  Level FlightAware Approximate
09:00PM 40.9239 -73.5095 37° Northeast  Level FlightAware Approximate
09:01PM 41.0472 -73.4041 30° Northeast  Level FlightAware Approximate
09:02PM 41.1698 -73.2969 37° Northeast  Level FlightAware Approximate
09:02PM 40.6410 -73.7750 37° Northeast 14 16  Level FlightAware
09:03PM 40.6410 -73.7740 90° East 20 23  Level FlightAware
09:03PM 40.6410 -73.7730 90° East 17 20  Level FlightAware
09:04PM 40.6430 -73.7720 21° North 25 29  Level FlightAware
09:04PM 40.6440 -73.7710 37° Northeast 29 33  Level FlightAware
09:05PM 40.6450 -73.7710 360° North 26 30  Level FlightAware
09:05PM 40.6470 -73.7710 360° North 19 22  Level FlightAware
09:08PM 40.9028 -73.5305 37° Northeast  Level FlightAware Approximate
09:08PM 40.6470 -73.7720 37° Northeast 14 16  Level FlightAware
09:08PM 40.6480 -73.7710 37° Northeast 18 21  Level FlightAware
09:09PM 40.6490 -73.7700 37° Northeast 26 30  Level FlightAware
09:09PM 40.6490 -73.7690 90° East 21 24  Level FlightAware
09:10PM 40.6500 -73.7670 57° Northeast  Level FlightAware
09:13PM 40.9237 -73.5097 37° Northeast  Level FlightAware Approximate
09:14PM 41.0470 -73.4042 30° Northeast  Level FlightAware Approximate
09:14PM 40.6490 -73.7660 30° Northeast 13 15  Level FlightAware
09:15PM 40.6490 -73.7650 90° East 14 16 60 Level FlightAware
09:16PM 40.6480 -73.7650 180° South 17 20 120 Level FlightAware
09:16PM 40.6480 -73.7660 270° West 24 28 120 Level FlightAware
09:16PM 40.6390 -73.7720 207° Southwest 116 133 180 Level FlightAware
09:17PM 40.6230 -73.7850 212° Southwest 148 170 200 780 Climbing FlightAware
09:17PM 40.6040 -73.7990 209° Southwest 155 178 800 1,200 Climbing FlightAware
09:17PM 40.5950 -73.8050 207° Southwest 159 183 1,100 1,200 Climbing FlightAware
09:18PM 40.5810 -73.8130 203° Southwest 161 185 1,500 1,200 Climbing FlightAware
09:18PM 40.5630 -73.7930 140° Southeast 165 190 2,200 1,260 Climbing FlightAware
09:19PM 40.5530 -73.7690 119° Southeast 171 197 2,800 960 Climbing FlightAware
09:19PM 40.5420 -73.7400 117° Southeast 203 234 3,100 720 Climbing FlightAware
09:20PM 40.5300 -73.7080 116° Southeast 235 270 3,500 840 Climbing FlightAware
09:20PM 40.5190 -73.6700 111° Southeast 269 310 3,900 1,500 Climbing FlightAware
09:21PM 40.5340 -73.6290 64° Northeast 271 312 4,900 2,280 Climbing FlightAware
09:21PM 40.5610 -73.6070 32° Northeast 271 312 6,000 2,580 Climbing FlightAware
09:22PM 40.5940 -73.5820 30° Northeast 269 310 7,300 2,400 Climbing FlightAware
09:22PM 40.6150 -73.5720 20° North 277 319 7,900 2,040 Climbing FlightAware
09:22PM 40.6540 -73.5640 North 282 325 9,000 2,100 Climbing FlightAware
09:23PM 40.6880 -73.5580 North 287 330 9,900 2,220 Climbing FlightAware
09:24PM 40.7580 -73.5600 359° North 288 331 12,000 2,160 Climbing FlightAware
09:24PM 40.8170 -73.5760 348° North 298 343 13,500 1,620 Climbing FlightAware
09:25PM 40.8740 -73.5900 349° North 325 374 14,300 1,500 Climbing FlightAware
09:26PM 40.9199 -73.6024 348° North 325 374 15,300 1,380 Climbing FlightAware ADS-B
09:26PM 40.9713 -73.6151 349° North 349 402 15,800 780 Climbing FlightAware ADS-B
09:26PM 40.9932 -73.6154 359° North 371 427 15,900 1,260 Climbing FlightAware ADS-B
09:27PM 41.0520 -73.5810 24° Northeast 390 449 16,900 1,560 Climbing FlightAware
09:28PM 41.1050 -73.5090 46° Northeast 403 464 18,000 1,500 Climbing FlightAware
09:28PM 41.1560 -73.4420 45° Northeast 412 474 18,900 1,380 Climbing FlightAware
09:29PM 41.2330 -73.3380 45° Northeast 420 483 20,300 1,320 Climbing FlightAware
09:30PM 41.3110 -73.2330 45° Northeast 435 501 21,500 1,020 Climbing FlightAware
09:32PM 41.4210 -73.0490 51° Northeast 452 520 22,900 1,200 Climbing FlightAware
09:33PM 41.4850 -72.9040 59° Northeast 465 535 24,500 1,320 Climbing FlightAware
09:33PM 41.5280 -72.8070 59° Northeast 475 547 25,000 480 Climbing FlightAware
09:34PM 41.5660 -72.7200 60° Northeast 478 550 25,200 720 Climbing FlightAware
09:35PM 41.6280 -72.5790 59° Northeast 485 558 26,200 540 Climbing FlightAware
09:36PM 41.6760 -72.4720 59° Northeast 485 558 26,200 540 Level FlightAware
09:36PM 41.7200 -72.3720 59° Northeast 518 596 26,900 1,140 Climbing FlightAware
09:37PM 41.7850 -72.2270 59° Northeast 523 602 27,700 780 Climbing FlightAware
09:38PM 41.8380 -72.1090 59° Northeast 531 611 28,200 600 Climbing FlightAware
09:38PM 41.8930 -71.9840 59° Northeast 537 618 28,600 600 Climbing FlightAware
09:39PM 41.9520 -71.8510 59° Northeast 544 626 29,100 540 Climbing FlightAware
09:40PM 41.9950 -71.7350 63° Northeast 553 636 29,400 900 Climbing FlightAware
09:41PM 42.0730 -71.5170 64° Northeast 553 636 30,800 1,140 Climbing FlightAware
09:42PM 42.1230 -71.3780 64° Northeast 554 638 31,600 1,200 Climbing FlightAware
09:43PM 42.1910 -71.1850 65° Northeast 549 632 33,000 960 Climbing FlightAware
09:43PM 42.2420 -71.0430 64° Northeast 560 644 33,400 540 Climbing FlightAware
09:44PM 42.2920 -70.8990 65° Northeast 566 651 33,900 420 Climbing FlightAware
09:45PM 42.3380 -70.7680 65° Northeast 575 662 34,000 60 Climbing FlightAware
09:46PM 42.3830 -70.6380 65° Northeast 578 665 34,000  Level FlightAware
09:46PM 42.4340 -70.4910 65° Northeast 579 666 34,000  Level FlightAware
09:47PM 42.4780 -70.3630 65° Northeast 577 664 34,000  Level FlightAware
09:48PM 42.5250 -70.2310 64° Northeast 571 657 34,000  Level FlightAware
09:48PM 42.5990 -70.1040 52° Northeast 563 648 34,000 60 Level FlightAware
09:49PM 42.6670 -69.9990 49° Northeast 563 648 34,100 660 Climbing FlightAware
09:50PM 42.7390 -69.8870 49° Northeast 564 649 35,100 1,020 Climbing FlightAware
09:51PM 42.8360 -69.7280 50° Northeast 562 647 35,900 600 Climbing FlightAware
09:51PM 42.8830 -69.5800 67° East 563 648 36,000 60 Climbing FlightAware
09:52PM 42.9160 -69.4660 68° East 564 649 36,000  Level FlightAware
09:53PM 42.9610 -69.3020 69° East 567 652 36,000  Level FlightAware
09:54PM 42.9970 -69.1710 69° East 567 652 36,000  Level FlightAware
09:54PM 43.0340 -69.0350 70° East 566 651 36,000  Level FlightAware
09:55PM 43.0800 -68.8700 69° East 566 651 36,000  Level FlightAware
09:56PM 43.1340 -68.6700 70° East 566 651 36,000  Level FlightAware
09:57PM 43.1720 -68.5330 69° East 566 651 36,000  Level FlightAware
09:58PM 43.2030 -68.4220 69° East 566 651 36,000  Level FlightAware
09:58PM 43.2330 -68.3160 69° East 566 651 36,000  Level FlightAware
09:59PM 43.2710 -68.1790 69° East 566 651 36,000  Level FlightAware
10:00PM 43.3230 -67.9480 73° East 36,000  Level FlightAware
10:00PM 43.3630 -67.7950 70° East 570 656 36,000  Level FlightAware
10:01PM 43.4030 -67.6390 71° East 568 654 36,000  Level FlightAware
10:02PM 43.4330 -67.5220 71° East 569 655 36,000  Level FlightAware
10:02PM 43.4730 -67.3630 71° East 570 656 36,000  Level FlightAware
10:03PM 43.5110 -67.2150 70° East 572 658 36,000  Level FlightAware
10:04PM 43.5450 -67.0890 70° East 578 665 36,000  Level FlightAware
10:04PM 43.6010 -66.9410 62° Northeast 575 662 36,000  Level FlightAware
10:05PM 43.6580 -66.8230 56° Northeast 575 662 36,000  Level FlightAware
10:06PM 43.7230 -66.7000 54° Northeast 579 666 36,000  Level FlightAware
10:07PM 43.7930 -66.5660 54° Northeast 579 666 36,000  Level FlightAware
10:07PM 43.8570 -66.4420 54° Northeast 581 669 36,000  Level FlightAware
10:08PM 43.9260 -66.3090 54° Northeast 582 670 36,000  Level FlightAware
10:09PM 43.9880 -66.1900 54° Northeast 585 673 36,000  Level FlightAware
10:09PM 44.0520 -66.0650 55° Northeast 585 673 36,000  Level FlightAware
10:10PM 44.1150 -65.9410 55° Northeast 585 673 36,000  Level FlightAware
10:11PM 44.2340 -65.7070 55° Northeast 587 676 36,000  Level FlightAware
10:12PM 44.3210 -65.5360 55° Northeast 588 677 36,000  Level FlightAware
10:13PM 44.3860 -65.4060 55° Northeast 589 678 36,000  Level FlightAware
10:14PM 44.4490 -65.2800 55° Northeast 589 678 36,000  Level FlightAware
10:14PM 44.5170 -65.1440 55° Northeast 589 678 36,000  Level FlightAware
10:15PM 44.5830 -65.0110 55° Northeast 590 679 36,000  Level FlightAware
10:16PM 44.6480 -64.8790 55° Northeast 590 679 36,000  Level FlightAware
10:16PM 44.7100 -64.7530 55° Northeast 593 682 36,000  Level FlightAware
10:17PM 44.7750 -64.6190 56° Northeast 594 684 36,000  Level FlightAware
10:18PM 44.8410 -64.4840 55° Northeast 594 684 36,000  Level FlightAware
10:18PM 44.9100 -64.3410 56° Northeast 593 682 36,000  Level FlightAware
10:19PM 44.9730 -64.2100 56° Northeast 594 684 36,000  Level FlightAware
10:20PM 45.0290 -64.0950 55° Northeast 596 686 36,000  Level FlightAware
10:21PM 45.1050 -63.9340 56° Northeast 596 686 36,000  Level FlightAware
10:21PM 45.1630 -63.8120 56° Northeast 596 686 36,000  Level FlightAware
10:22PM 45.2240 -63.6830 56° Northeast 595 685 36,000  Level FlightAware
10:23PM 45.2930 -63.5380 56° Northeast 594 684 36,000  Level FlightAware
10:23PM 45.3550 -63.4060 56° Northeast 594 684 36,000  Level FlightAware
10:24PM 45.4210 -63.2650 56° Northeast 594 684 36,000  Level FlightAware
10:25PM 45.4780 -63.1420 57° Northeast 595 685 36,000  Level FlightAware
10:26PM 45.5490 -62.9850 57° Northeast 595 685 36,000  Level FlightAware
10:26PM 45.5710 -62.9380 56° Northeast 594 684 36,000  Level FlightAware
10:27PM 45.6270 -62.8150 57° Northeast 594 684 36,000  Level FlightAware
10:28PM 45.6880 -62.6800 57° Northeast 594 684 36,000  Level FlightAware
10:28PM 45.7330 -62.5820 57° Northeast 594 684 36,000  Level FlightAware
10:29PM 45.7940 -62.4470 57° Northeast 594 684 36,000  Level FlightAware
10:30PM 45.8410 -62.3430 57° Northeast 594 684 36,000  Level FlightAware
10:31PM 45.9930 -62.0070 57° Northeast 595 685 36,000  Level FlightAware
10:31PM 46.0880 -61.7920 57° Northeast 597 687 36,000  Level FlightAware
10:32PM 46.1510 -61.6500 57° Northeast 598 688 36,000  Level FlightAware
10:33PM 46.2150 -61.5030 58° Northeast 602 693 36,000  Level FlightAware
10:34PM 46.2770 -61.3600 58° Northeast 604 695 36,000  Level FlightAware
10:34PM 46.3370 -61.2240 57° Northeast 606 697 36,000  Level FlightAware
10:35PM 46.4430 -60.9760 58° Northeast 606 697 36,000  Level FlightAware
10:36PM 46.5080 -60.8240 58° Northeast 607 699 36,000  Level FlightAware
10:37PM 46.5610 -60.6990 58° Northeast 609 701 36,000  Level FlightAware
10:38PM 46.6280 -60.5400 58° Northeast 607 699 36,000  Level FlightAware
10:38PM 46.6840 -60.4080 58° Northeast 606 697 36,000  Level FlightAware
10:39PM 46.7480 -60.2570 58° Northeast 604 695 36,000  Level FlightAware
10:40PM 46.8120 -60.1010 59° Northeast 606 697 36,000  Level FlightAware
10:40PM 46.8700 -59.9620 59° Northeast 606 697 36,000  Level FlightAware
10:41PM 46.9340 -59.8070 59° Northeast 607 699 36,000  Level FlightAware
10:42PM 46.9920 -59.6630 59° Northeast 605 696 36,000  Level FlightAware
10:42PM 47.0530 -59.5150 59° Northeast 608 700 36,000  Level FlightAware
10:43PM 47.1140 -59.3650 59° Northeast 608 700 36,000  Level FlightAware
10:44PM 47.1670 -59.2350 59° Northeast 608 700 36,000  Level FlightAware
10:45PM 47.2330 -59.0680 60° Northeast 609 701 36,000  Level FlightAware
10:45PM 47.2800 -58.9520 59° Northeast 609 701 36,000  Level FlightAware
10:46PM 47.3520 -58.7700 60° Northeast 609 701 36,000  Level FlightAware
10:47PM 47.4300 -58.5730 60° Northeast 610 702 36,000  Level FlightAware
10:48PM 47.4800 -58.4470 60° Northeast 610 702 36,000  Level FlightAware
10:48PM 47.5420 -58.2950 59° Northeast 610 702 36,000  Level FlightAware
10:49PM 47.6040 -58.1240 62° Northeast 610 702 36,000  Level FlightAware
10:51PM 47.7480 -57.7490 60° Northeast 611 703 36,000  Level FlightAware
10:51PM 47.8050 -57.5980 61° Northeast 610 702 36,000  Level FlightAware
10:52PM 47.8560 -57.4610 61° Northeast 609 701 36,000  Level FlightAware
10:53PM 47.9070 -57.3030 64° Northeast 611 703 36,000  Level FlightAware
10:53PM 47.9630 -57.1310 64° Northeast 608 700 36,000  Level FlightAware
10:54PM 48.0020 -57.0120 64° Northeast 607 699 36,000  Level FlightAware
10:55PM 48.0680 -56.8100 64° Northeast 606 697 36,000  Level FlightAware
10:56PM 48.1170 -56.6580 64° Northeast 608 700 36,000  Level FlightAware
10:56PM 48.1580 -56.5310 64° Northeast 609 701 36,000  Level FlightAware
10:57PM 48.2200 -56.3390 64° Northeast 608 700 36,000  Level FlightAware
10:58PM 48.2660 -56.1930 65° Northeast 608 700 36,000  Level FlightAware
10:58PM 48.3170 -56.0330 64° Northeast 608 700 36,000  Level FlightAware
10:59PM 48.3710 -55.8600 65° Northeast 609 701 36,000  Level FlightAware
11:00PM 48.4190 -55.7090 64° Northeast 610 702 36,000  Level FlightAware
11:01PM 48.4850 -55.4950 65° Northeast 614 707 36,000  Level FlightAware
11:01PM 48.5380 -55.3240 65° Northeast 613 705 36,000  Level FlightAware
11:02PM 48.5850 -55.1670 66° East 617 710 36,000  Level FlightAware
11:03PM 48.6330 -55.0100 65° Northeast 618 711 36,000  Level FlightAware
11:03PM 48.6860 -54.8340 65° Northeast 618 711 36,000  Level FlightAware
11:04PM 48.7340 -54.6750 65° Northeast 620 713 36,000  Level FlightAware
11:05PM 48.7800 -54.5190 66° East 622 716 36,000  Level FlightAware
11:06PM 48.8290 -54.3530 66° East 622 716 36,000  Level FlightAware
11:06PM 48.8860 -54.1610 66° East 621 715 36,000  Level FlightAware
11:07PM 48.9380 -53.9810 66° East 620 713 36,000  Level FlightAware
11:08PM 48.9780 -53.8410 66° East 620 713 36,000 600 Level FlightAware
11:08PM 49.0290 -53.6650 66° East 616 709 36,800 660 Climbing FlightAware
11:09PM 49.0750 -53.5060 66° East 610 702 37,000 120 Climbing FlightAware
11:10PM 49.1250 -53.3250 67° East 615 708 37,000  Level FlightAware
11:10PM 49.1690 -53.1690 67° East 616 709 37,000  Level FlightAware
11:11PM 49.2150 -53.0070 66° East 618 711 37,000  Level FlightAware
11:12PM 49.2650 -52.8260 67° East 620 713 37,000  Level FlightAware
11:13PM 49.3090 -52.6660 67° East 620 713 37,000  Level FlightAware
11:13PM 49.3580 -52.4850 67° East 619 712 37,000  Level FlightAware
11:14PM 49.4160 -52.2750 67° East 619 712 37,000  Level FlightAware
11:15PM 49.4620 -52.1030 68° East 618 711 37,000  Level FlightAware
11:16PM 49.5030 -51.9490 68° East 619 712 37,000  Level FlightAware
11:16PM 49.5500 -51.7760 67° East 619 712 37,000  Level FlightAware
11:17PM 49.5860 -51.6480 67° East 619 712 37,000  Level FlightAware
11:18PM 49.6200 -51.5240 67° East 619 712 37,000  Level FlightAware
11:18PM 49.6660 -51.3540 67° East 619 712 37,000  Level FlightAware
11:19PM 49.7010 -51.2260 67° East 619 712 37,000  Level FlightAware
11:20PM 49.7620 -51.0040 67° East 619 712 37,000  Level FlightAware
11:21PM 49.8000 -50.8660 67° East 619 712 37,000  Level FlightAware
11:21PM 49.8350 -50.7400 67° East 619 712 37,000  Level FlightAware
11:22PM 49.8820 -50.5670 67° East 619 712 37,000  Level FlightAware
11:23PM 49.9170 -50.4380 67° East 619 712 37,000  Level FlightAware
11:24PM 49.9750 -50.2260 67° East 619 712 37,000  Level FlightAware
11:24PM 50.0100 -50.0970 67° East 619 712 37,000  Level FlightAware
11:25PM 50.0600 -49.9150 67° East 619 712 37,000  Level FlightAware
11:26PM 50.1500 -49.2167 67° East 620 713 37,000  Level Gander Center
11:27PM 50.2333 -48.9667 62° Northeast 620 713 37,000  Level Gander Center
11:28PM 50.2833 -48.7333 71° East 620 713 37,000  Level Gander Center
11:29PM 50.3500 -48.4500 70° East 620 713 37,000  Level Gander Center
11:30PM 50.4000 -48.2000 72° East 620 713 37,000  Level Gander Center
11:31PM 50.4500 -47.9667 71° East 620 713 37,000  Level Gander Center
11:34PM 50.5391 -47.5857 70° East  Level FlightAware Approximate
11:41PM 50.8800 -46.0622 70° East  Level FlightAware Approximate
11:42PM 50.9270 -45.8428 71° East  Level FlightAware Approximate
11:43PM 50.9737 -45.6229 71° East  Level FlightAware Approximate
11:44PM 51.0199 -45.4026 71° East  Level FlightAware Approximate
11:45PM 51.0657 -45.1818 72° East  Level FlightAware Approximate
11:46PM 51.1111 -44.9607 72° East  Level FlightAware Approximate
11:47PM 51.1561 -44.7390 72° East  Level FlightAware Approximate
11:48PM 51.2006 -44.5170 72° East  Level FlightAware Approximate
11:49PM 51.2448 -44.2945 72° East  Level FlightAware Approximate
11:50PM 51.2885 -44.0716 73° East  Level FlightAware Approximate
11:51PM 51.3318 -43.8483 73° East  Level FlightAware Approximate
11:52PM 51.3747 -43.6245 73° East  Level FlightAware Approximate
11:53PM 51.4171 -43.4003 73° East  Level FlightAware Approximate
11:54PM 51.4591 -43.1758 73° East  Level FlightAware Approximate
11:55PM 51.5007 -42.9508 73° East  Level FlightAware Approximate
11:56PM 51.5419 -42.7254 74° East  Level FlightAware Approximate
11:57PM 51.5826 -42.4996 74° East  Level FlightAware Approximate
11:58PM 51.6229 -42.2733 74° East  Level FlightAware Approximate
11:59PM 51.6627 -42.0467 74° East  Level FlightAware Approximate
12:00AM 51.7021 -41.8197 74° East  Level FlightAware Approximate
12:01AM 51.7411 -41.5923 74° East  Level FlightAware Approximate
12:02AM 51.7797 -41.3645 75° East  Level FlightAware Approximate
12:03AM 51.8178 -41.1364 75° East  Level FlightAware Approximate
12:04AM 51.8554 -40.9078 75° East  Level FlightAware Approximate
12:05AM 51.8926 -40.6789 75° East  Level FlightAware Approximate
12:06AM 51.9294 -40.4495 75° East  Level FlightAware Approximate
12:07AM 51.9657 -40.2198 76° East  Level FlightAware Approximate
12:08AM 52.0004 -39.9896 86° East  Level FlightAware Approximate
12:09AM 52.0102 -39.7527 86° East  Level FlightAware Approximate
12:10AM 52.0196 -39.5157 86° East  Level FlightAware Approximate
12:11AM 52.0284 -39.2786 86° East  Level FlightAware Approximate
12:12AM 52.0368 -39.0414 87° East  Level FlightAware Approximate
12:13AM 52.0447 -38.8041 87° East  Level FlightAware Approximate
12:14AM 52.0521 -38.5668 87° East  Level FlightAware Approximate
12:15AM 52.0590 -38.3293 87° East  Level FlightAware Approximate
12:16AM 52.0655 -38.0918 87° East  Level FlightAware Approximate
12:17AM 52.0714 -37.8543 88° East  Level FlightAware Approximate
12:18AM 52.0770 -37.6166 88° East  Level FlightAware Approximate
12:19AM 52.0820 -37.3789 88° East  Level FlightAware Approximate
12:20AM 52.0865 -37.1412 88° East  Level FlightAware Approximate
12:21AM 52.0906 -36.9034 88° East  Level FlightAware Approximate
12:22AM 52.0942 -36.6656 88° East  Level FlightAware Approximate
12:23AM 52.0973 -36.4277 89° East  Level FlightAware Approximate
12:24AM 52.0999 -36.1898 89° East  Level FlightAware Approximate
12:25AM 52.1021 -35.9519 89° East  Level FlightAware Approximate
12:26AM 52.1038 -35.7139 89° East  Level FlightAware Approximate
12:27AM 52.1050 -35.4760 89° East  Level FlightAware Approximate
12:28AM 52.1057 -35.2380 90° East  Level FlightAware Approximate
12:29AM 52.1059 -35.0000 90° East  Level FlightAware Approximate
12:30AM 52.1057 -34.7621 90° East  Level FlightAware Approximate
12:31AM 52.1050 -34.5241 90° East  Level FlightAware Approximate
12:32AM 52.1038 -34.2861 90° East  Level FlightAware Approximate
12:33AM 52.1021 -34.0482 91° East  Level FlightAware Approximate
12:34AM 52.0999 -33.8103 91° East  Level FlightAware Approximate
12:35AM 52.0973 -33.5724 91° East  Level FlightAware Approximate
12:36AM 52.0942 -33.3345 91° East  Level FlightAware Approximate
12:37AM 52.0906 -33.0967 91° East  Level FlightAware Approximate
12:38AM 52.0865 -32.8589 92° East  Level FlightAware Approximate
12:39AM 52.0820 -32.6211 92° East  Level FlightAware Approximate
12:40AM 52.0770 -32.3834 92° East  Level FlightAware Approximate
12:41AM 52.0714 -32.1458 92° East  Level FlightAware Approximate
12:42AM 52.0655 -31.9082 92° East  Level FlightAware Approximate
12:43AM 52.0590 -31.6707 92° East  Level FlightAware Approximate
12:44AM 52.0521 -31.4333 93° East  Level FlightAware Approximate
12:45AM 52.0447 -31.1959 93° East  Level FlightAware Approximate
12:46AM 52.0368 -30.9586 93° East  Level FlightAware Approximate
12:47AM 52.0284 -30.7215 93° East  Level FlightAware Approximate
12:48AM 52.0196 -30.4844 93° East  Level FlightAware Approximate
12:49AM 52.0102 -30.2473 94° East  Level FlightAware Approximate
12:50AM 52.0004 -30.0104 94° East  Level FlightAware Approximate
12:51AM 52.0094 -29.7736 86° East  Level FlightAware Approximate
12:52AM 52.0187 -29.5366 86° East  Level FlightAware Approximate
12:53AM 52.0276 -29.2995 86° East  Level FlightAware Approximate
12:54AM 52.0360 -29.0623 87° East  Level FlightAware Approximate
12:55AM 52.0440 -28.8250 87° East  Level FlightAware Approximate
12:56AM 52.0514 -28.5877 87° East  Level FlightAware Approximate
12:57AM 52.0584 -28.3502 87° East  Level FlightAware Approximate
12:58AM 52.0649 -28.1127 87° East  Level FlightAware Approximate
12:59AM 52.0709 -27.8752 88° East  Level FlightAware Approximate
01:00AM 52.0765 -27.6375 88° East  Level FlightAware Approximate
01:01AM 52.0816 -27.3998 88° East  Level FlightAware Approximate
01:02AM 52.0862 -27.1621 88° East  Level FlightAware Approximate
01:03AM 52.0903 -26.9243 88° East  Level FlightAware Approximate
01:04AM 52.0939 -26.6865 88° East  Level FlightAware Approximate
01:05AM 52.0970 -26.4486 89° East  Level FlightAware Approximate
01:06AM 52.0997 -26.2107 89° East  Level FlightAware Approximate
01:07AM 52.1019 -25.9728 89° East  Level FlightAware Approximate
01:08AM 52.1036 -25.7349 89° East  Level FlightAware Approximate
01:09AM 52.1049 -25.4969 89° East  Level FlightAware Approximate
01:10AM 52.1057 -25.2589 90° East  Level FlightAware Approximate
01:11AM 52.1059 -25.0210 90° East  Level FlightAware Approximate
01:12AM 52.1057 -24.7830 90° East  Level FlightAware Approximate
01:13AM 52.1050 -24.5450 90° East  Level FlightAware Approximate
01:14AM 52.1039 -24.3071 90° East  Level FlightAware Approximate
01:15AM 52.1023 -24.0691 91° East  Level FlightAware Approximate
01:16AM 52.1002 -23.8312 91° East  Level FlightAware Approximate
01:17AM 52.0976 -23.5933 91° East  Level FlightAware Approximate
01:18AM 52.0945 -23.3554 91° East  Level FlightAware Approximate
01:19AM 52.0909 -23.1176 91° East  Level FlightAware Approximate
01:20AM 52.0869 -22.8798 91° East  Level FlightAware Approximate
01:21AM 52.0824 -22.6421 92° East  Level FlightAware Approximate
01:22AM 52.0774 -22.4044 92° East  Level FlightAware Approximate
01:23AM 52.0720 -22.1667 92° East  Level FlightAware Approximate
01:24AM 52.0660 -21.9291 92° East  Level FlightAware Approximate
01:25AM 52.0596 -21.6916 92° East  Level FlightAware Approximate
01:26AM 52.0527 -21.4542 93° East  Level FlightAware Approximate
01:27AM 52.0453 -21.2168 93° East  Level FlightAware Approximate
01:28AM 52.0375 -20.9795 93° East  Level FlightAware Approximate
01:29AM 52.0291 -20.7423 93° East  Level FlightAware Approximate
01:30AM 52.0204 -20.5052 93° East  Level FlightAware Approximate
01:31AM 52.0111 -20.2682 94° East  Level FlightAware Approximate
01:32AM 52.0013 -20.0313 94° East  Level FlightAware Approximate
01:33AM 52.0076 -19.7943 86° East  Level FlightAware Approximate
01:34AM 52.0159 -19.5572 87° East  Level FlightAware Approximate
01:35AM 52.0238 -19.3200 87° East  Level FlightAware Approximate
01:36AM 52.0312 -19.0828 87° East  Level FlightAware Approximate
01:37AM 52.0381 -18.8454 87° East  Level FlightAware Approximate
01:38AM 52.0445 -18.6080 87° East  Level FlightAware Approximate
01:39AM 52.0504 -18.3706 88° East  Level FlightAware Approximate
01:40AM 52.0559 -18.1331 88° East  Level FlightAware Approximate
01:41AM 52.0609 -17.8955 88° East  Level FlightAware Approximate
01:42AM 52.0654 -17.6578 88° East  Level FlightAware Approximate
01:43AM 52.0695 -17.4202 88° East  Level FlightAware Approximate
01:44AM 52.0730 -17.1824 89° East  Level FlightAware Approximate
01:45AM 52.0761 -16.9447 89° East  Level FlightAware Approximate
01:46AM 52.0787 -16.7069 89° East  Level FlightAware Approximate
01:47AM 52.0808 -16.4691 89° East  Level FlightAware Approximate
01:48AM 52.0825 -16.2313 89° East  Level FlightAware Approximate
01:49AM 52.0836 -15.9934 89° East  Level FlightAware Approximate
01:50AM 52.0843 -15.7556 90° East  Level FlightAware Approximate
01:51AM 52.0845 -15.5177 90° East  Level FlightAware Approximate
01:52AM 52.0843 -15.2799 90° East  Level FlightAware Approximate
01:53AM 52.0835 -15.0420 90° East  Level FlightAware Approximate
01:54AM 52.0828 -14.8041 90° East  Level FlightAware Approximate
01:54AM 51.9900 -12.0800 90° East 502 578 39,000  Level FlightAware
01:55AM 52.0818 -14.5663 90° East  Level FlightAware Approximate
01:55AM 51.9870 -11.8790 91° East 508 585 39,000  Level FlightAware
01:55AM 51.9840 -11.7640 92° East 511 588 39,000  Level FlightAware
01:56AM 51.9800 -11.5360 92° East 512 589 39,000  Level FlightAware
01:57AM 51.9760 -11.3320 92° East 511 588 39,000  Level FlightAware
01:58AM 51.9730 -11.1760 92° East 511 588 39,000  Level FlightAware
01:58AM 51.9690 -11.0220 92° East 512 589 39,000  Level FlightAware
01:59AM 51.9660 -10.8630 92° East 513 590 39,000  Level FlightAware
02:00AM 51.9610 -10.6780 92° East 514 592 39,000  Level FlightAware
02:01AM 51.9560 -10.4910 92° East 512 589 39,000  Level FlightAware
02:01AM 51.9510 -10.3200 93° East 509 586 39,000  Level FlightAware
02:02AM 51.9460 -10.1590 93° East 507 583 39,000  Level FlightAware
02:03AM 51.9410 -9.9910 93° East 504 580 39,000  Level FlightAware
02:03AM 51.9360 -9.8400 93° East 502 578 39,000  Level FlightAware
02:04AM 51.9310 -9.6690 93° East 500 575 39,000  Level FlightAware
02:05AM 51.9250 -9.5020 93° East 502 578 39,000  Level FlightAware
02:06AM 51.9190 -9.3520 94° East 503 579 39,000  Level FlightAware
02:06AM 51.9130 -9.2010 94° East 506 582 39,000  Level FlightAware
02:07AM 51.9070 -9.0470 94° East 508 585 39,000  Level FlightAware
02:08AM 51.9010 -8.8800 93° East 506 582 39,000  Level FlightAware
02:08AM 51.8952 -8.7369 93° East 484 557 39,000  Level FlightAware UK
02:08AM 51.8940 -8.7310 93° East 505 581 39,000  Level FlightAware
02:09AM 51.8870 -8.5600 94° East 498 573 39,000  Level FlightAware
02:10AM 51.8810 -8.4290 94° East 498 573 39,000  Level FlightAware
02:10AM 51.8798 -8.4011 94° East 484 557 39,000  Level FlightAware UK
02:10AM 51.8746 -8.2901 94° East 484 557 39,000  Level FlightAware UK
02:11AM 51.8694 -8.1782 94° East 484 557 39,000  Level FlightAware UK
02:11AM 51.8710 -8.2050 94° East 498 573 39,000  Level FlightAware
02:12AM 51.8591 -7.9347 94° East 480 552 39,000  Level FlightAware UK
02:12AM 51.8580 -7.9320 94° East 494 568 39,000  Level FlightAware
02:13AM 51.8510 -7.7890 94° East 498 573 39,000  Level FlightAware
02:13AM 51.8420 -7.6260 95° East 499 574 39,000  Level FlightAware
02:14AM 51.8365 -7.4912 95° East 478 550 39,000  Level FlightAware UK
02:14AM 51.8340 -7.4730 95° East 500 575 39,000  Level FlightAware
02:15AM 51.8290 -7.3680 94° East 501 577 39,000  Level FlightAware
02:15AM 51.8180 -7.1830 94° East 499 574 39,000  Level FlightAware
02:15AM 51.8170 -7.1563 94° East 478 550 39,000  Level FlightAware UK
02:16AM 51.8108 -7.0444 94° East 474 545 39,000  Level FlightAware UK
02:16AM 51.8080 -6.9970 94° East 501 577 39,000  Level FlightAware
02:17AM 51.7990 -6.8470 95° East 503 579 39,000  Level FlightAware
02:17AM 51.7911 -6.7101 95° East 482 555 39,000  Level FlightAware UK
02:17AM 51.7900 -6.6930 95° East 502 578 39,000  Level FlightAware
02:18AM 51.7810 -6.5460 96° East 497 572 39,000  Level FlightAware
02:19AM 51.7744 -6.3762 96° East 488 562 39,000  Level FlightAware UK
02:19AM 51.7750 -6.3680 96° East 499 574 39,000  Level FlightAware
02:20AM 51.7710 -6.2260 93° East 493 567 39,000  Level FlightAware
02:20AM 51.7650 -6.0640 93° East 488 562 39,000  Level FlightAware
02:21AM 51.7606 -5.9369 93° East 480 552 39,000  Level FlightAware UK
02:21AM 51.7600 -5.9080 93° East 489 563 39,000  Level FlightAware
02:22AM 51.7540 -5.7630 94° East 490 564 39,000  Level FlightAware
02:22AM 51.7484 -5.6098 94° East 484 557 39,000  Level FlightAware UK
02:22AM 51.7480 -5.6070 94° East 490 564 39,000  Level FlightAware
02:23AM 51.7420 -5.4600 94° East 490 564 39,000  Level FlightAware
02:24AM 51.7360 -5.3180 94° East 489 563 39,000  Level FlightAware
02:24AM 51.7290 -5.1580 94° East 490 564 39,000  Level FlightAware
02:25AM 51.7225 -4.9995 94° East 478 550 39,000  Level FlightAware UK
02:25AM 51.7220 -4.9920 94° East 488 562 39,000  Level FlightAware
02:26AM 51.7160 -4.8460 94° East 489 563 39,000  Level FlightAware
02:27AM 51.7080 -4.6940 95° East 487 560 39,000  Level FlightAware
02:27AM 51.7024 -4.5648 95° East 482 555 39,000  Level FlightAware UK
02:27AM 51.7010 -4.5440 95° East 486 559 39,000  Level FlightAware
02:28AM 51.6940 -4.4000 94° East 485 558 39,000  Level FlightAware
02:29AM 51.6880 -4.2690 94° East 480 552 39,000  Level FlightAware
02:29AM 51.6780 -4.0930 95° East 480 552 39,000  Level FlightAware
02:30AM 51.6720 -3.9780 95° East 482 555 39,000  Level FlightAware
02:30AM 51.6715 -3.9645 95° East 476 548 39,000  Level FlightAware UK
02:31AM 51.6636 -3.8134 95° East 480 552 39,000  Level FlightAware UK
02:31AM 51.6620 -3.7930 95° East 484 557 39,000  Level FlightAware
02:31AM 51.6551 -3.6628 95° East 482 555 39,000  Level FlightAware UK
02:32AM 51.6520 -3.6020 95° East 482 555 39,000  Level FlightAware
02:32AM 51.6440 -3.4620 95° East 478 550 39,000  Level FlightAware
02:33AM 51.6360 -3.3330 95° East 473 544 39,000  Level FlightAware
02:33AM 51.6354 -3.3226 95° East 488 562 39,000  Level FlightAware UK
02:34AM 51.6286 -3.2113 96° East 468 539 39,000  Level FlightAware ADS-B
02:34AM 51.6211 -3.0868 95° East 465 535 39,000  Level FlightAware ADS-B
02:35AM 51.6145 -2.9804 96° East 464 534 39,000  Level FlightAware ADS-B
02:35AM 51.6080 -2.8754 96° East 465 535 39,000  Level FlightAware ADS-B
02:36AM 51.6014 -2.7712 96° East 465 535 39,000  Level FlightAware ADS-B
02:36AM 51.5918 -2.6239 96° East 467 537 39,000  Level FlightAware ADS-B
02:37AM 51.5850 -2.5198 96° East 468 539 39,000  Level FlightAware ADS-B
02:37AM 51.5765 -2.3934 96° East 469 540 39,000  Level FlightAware ADS-B
02:38AM 51.5679 -2.2660 96° East 469 540 39,000  Level FlightAware ADS-B
02:39AM 51.5607 -2.1619 96° East 467 537 39,000  Level FlightAware ADS-B
02:39AM 51.5529 -2.0501 96° East 469 540 39,000  Level FlightAware ADS-B
02:40AM 51.5455 -1.9444 96° East 474 545 39,000  Level FlightAware ADS-B
02:40AM 51.5373 -1.8321 97° East 473 544 39,000  Level FlightAware ADS-B
02:41AM 51.5294 -1.7229 97° East 470 541 39,000  Level FlightAware ADS-B
02:41AM 51.5217 -1.6182 97° East 469 540 39,000  Level FlightAware ADS-B
02:42AM 51.5136 -1.5093 97° East 468 539 39,000  Level FlightAware ADS-B
02:42AM 51.5056 -1.4037 97° East 467 537 39,000  Level FlightAware ADS-B
02:43AM 51.4977 -1.3005 97° East 467 537 39,000  Level FlightAware ADS-B
02:43AM 51.4898 -1.1976 97° East 467 537 39,000  Level FlightAware ADS-B
02:44AM 51.4807 -1.0899 98° East 466 536 39,000  Level FlightAware ADS-B
02:44AM 51.4716 -0.9873 98° East 465 535 39,000  Level FlightAware ADS-B
02:45AM 51.4609 -0.8669 98° East 463 533 39,000  Level FlightAware ADS-B
02:45AM 51.4519 -0.7656 98° East 461 531 39,000  Level FlightAware ADS-B
02:46AM 51.4424 -0.6596 98° East 460 529 39,000  Level FlightAware ADS-B
02:46AM 51.4323 -0.5480 98° East 459 528 39,000  Level FlightAware ADS-B
02:47AM 51.4230 -0.4464 98° East 459 528 39,000  Level FlightAware ADS-B
02:47AM 51.4133 -0.3421 98° East 459 528 39,000  Level FlightAware ADS-B
02:48AM 51.4037 -0.2396 99° East 458 527 39,000  Level FlightAware ADS-B
02:48AM 51.3943 -0.1393 99° East 457 526 39,000  Level FlightAware ADS-B
02:49AM 51.3842 -0.0334 99° East 457 526 39,000  Level FlightAware ADS-B
02:50AM 51.3737 0.0756 99° East 459 528 39,000  Level FlightAware ADS-B
02:50AM 51.3630 0.1859 99° East 461 531 39,000  Level FlightAware ADS-B
02:51AM 51.3523 0.2948 99° East 465 535 39,000  Level FlightAware ADS-B
02:51AM 51.3420 0.3986 99° East 466 536 39,000  Level FlightAware ADS-B
02:52AM 51.3245 0.5719 99° East 464 534 39,000  Level FlightAware ADS-B
02:53AM 51.3138 0.6778 99° East 463 533 39,000  Level FlightAware ADS-B
02:53AM 51.3030 0.7834 99° East 464 534 39,000  Level FlightAware ADS-B
02:54AM 51.2918 0.8913 99° East 465 535 39,000  Level FlightAware ADS-B
02:54AM 51.2810 0.9944 99° East 466 536 39,000  Level FlightAware ADS-B
02:55AM 51.2698 1.0964 100° East 467 537 39,000  Level FlightAware ADS-B
02:55AM 51.2542 1.1983 104° East 468 539 39,000  Level FlightAware ADS-B
02:56AM 51.2321 1.3416 104° East 484 557 39,000  Level FlightAware UK
02:56AM 51.2310 1.3470 104° East 470 541 39,000  Level FlightAware
02:56AM 51.2143 1.4628 104° East 486 559 39,000  Level FlightAware UK
02:56AM 51.2130 1.4740 104° East 470 541 39,000  Level FlightAware
02:57AM 51.1967 1.5848 104° East 486 559 39,000  Level FlightAware UK
02:57AM 51.1920 1.6130 104° East 467 537 39,000  Level FlightAware
02:58AM 51.1710 1.7570 103° East 465 535 39,000  Level FlightAware
02:59AM 51.1485 1.9043 103° East 484 557 39,000  Level FlightAware UK
02:59AM 51.1440 1.9320 103° East 465 535 39,000  Level FlightAware
02:59AM 51.1273 2.0437 103° East 484 557 39,000  Level FlightAware UK
02:59AM 51.1220 2.0760 104° East 465 535 39,000  Level FlightAware
03:00AM 51.1119 2.1439 104° East 484 557 39,000  Level FlightAware UK
03:00AM 51.0963 2.2434 104° East 488 562 39,000  Level FlightAware UK
03:01AM 51.0807 2.3431 104° East 486 559 39,000  Level FlightAware UK
03:01AM 51.0740 2.3870 104° East 466 536 39,000  Level FlightAware
03:02AM 51.0520 2.5280 104° East 465 535 39,000  Level FlightAware
03:02AM 51.0290 2.6710 104° East 465 535 39,000  Level FlightAware
03:03AM 51.0119 2.7811 104° East 484 557 39,000  Level FlightAware UK
03:03AM 51.0070 2.8070 104° East 467 537 39,000  Level FlightAware
03:04AM 50.9850 2.9470 104° East 468 539 39,000  Level FlightAware
03:05AM 50.9610 3.0910 105° East 465 535 39,000  Level FlightAware
03:05AM 50.9480 3.1740 104° East 461 531 39,000  Level FlightAware
03:06AM 50.9440 3.1980 105° East 460 529 39,000  Level FlightAware
03:07AM 50.8960 3.4850 105° East 452 520 39,000  Level FlightAware
03:07AM 50.8740 3.6190 105° East 453 521 39,000  Level FlightAware
03:08AM 50.8500 3.7590 105° East 447 514 39,000  Level FlightAware
03:09AM 50.8270 3.8930 105° East 448 516 39,000  Level FlightAware
03:09AM 50.8050 4.0240 105° East 448 516 39,000  Level FlightAware
03:10AM 50.7833 4.1506 105° East 484 557 39,000  Level FlightAware UK
03:10AM 50.7800 4.1670 105° East 450 518 39,000 -720 Level FlightAware
03:11AM 50.7599 4.2832 105° East 490 564 38,500 -720 Descending FlightAware UK
03:11AM 50.7500 4.3380 105° East 431 496 38,300 -1,380 Descending FlightAware
03:12AM 50.7255 4.4808 105° East 468 539 37,000 -2,040 Descending FlightAware UK
03:12AM 50.7250 4.4830 105° East 420 483 36,800 -4,380 Descending FlightAware
03:13AM 50.7010 4.6150 106° East 448 516 33,800 -4,080 Descending FlightAware
03:13AM 50.6810 4.7223 106° East 492 566 31,700 -3,600 Descending FlightAware UK
03:13AM 50.6780 4.7430 106° East 461 531 31,400 -2,520 Descending FlightAware
03:14AM 50.6580 4.8570 105° East 457 526 29,900 -1,620 Descending FlightAware
03:15AM 50.6330 4.9970 106° East 430 495 29,100 -600 Descending FlightAware
03:15AM 50.6070 5.1390 106° East 426 490 29,000 -120 Descending FlightAware
03:16AM 50.5840 5.2590 107° East 432 497 29,000  Level FlightAware
03:17AM 50.5620 5.3830 106° East 433 498 29,000 -120 Level FlightAware
03:18AM 50.5380 5.5100 107° East 426 490 28,900 -600 Descending FlightAware
03:18AM 50.5130 5.6400 107° East 421 484 28,200 -1,020 Descending FlightAware
03:19AM 50.4910 5.7610 106° East 419 482 27,500 -960 Descending FlightAware
03:20AM 50.4720 5.8620 106° East 416 479 27,000 -1,020 Descending FlightAware
03:20AM 50.4440 6.0060 107° East 412 474 26,100 -1,020 Descending FlightAware
03:21AM 50.4220 6.1170 107° East 414 476 25,500 -960 Descending FlightAware
03:21AM 50.4080 6.1670 114° Southeast 406 467 25,200 -540 Descending FlightAware
03:22AM 50.3630 6.2600 127° Southeast 412 474 25,000 -180 Descending FlightAware
03:23AM 50.3110 6.3650 128° Southeast 417 480 25,000 -180 Level FlightAware
03:23AM 50.2680 6.4650 124° Southeast 424 488 24,800 -600 Descending FlightAware
03:24AM 50.2380 6.5810 112° Southeast 403 464 24,200 -1,680 Descending FlightAware
03:25AM 50.2050 6.6970 114° Southeast 399 459 22,500 -2,160 Descending FlightAware
03:25AM 50.1810 6.7810 114° Southeast 399 459 21,400 -1,920 Descending FlightAware
03:26AM 50.1430 6.9150 114° Southeast 382 440 19,800 -1,740 Descending FlightAware
03:27AM 50.1100 7.0300 114° Southeast 364 419 18,600 -1,860 Descending FlightAware
03:28AM 50.0790 7.1400 114° Southeast 362 417 17,000 -2,160 Descending FlightAware
03:29AM 50.0420 7.2690 114° Southeast 350 403 15,000 -2,220 Descending FlightAware
03:29AM 50.0140 7.3650 114° Southeast 341 392 13,400 -1,500 Descending FlightAware
03:30AM 49.9890 7.4520 114° Southeast 322 371 13,000 -300 Descending FlightAware
03:31AM 49.9660 7.5320 114° Southeast 280 322 13,000 -120 Level FlightAware
03:32AM 49.9420 7.6140 114° Southeast 277 319 12,900 -720 Descending FlightAware
03:32AM 49.9200 7.6870 115° Southeast 275 316 12,000 -1,320 Descending FlightAware
03:33AM 49.9000 7.7550 115° Southeast 244 281 11,200 -1,680 Descending FlightAware
03:34AM 49.8820 7.8180 114° Southeast 245 282 9,800 -1,920 Descending FlightAware
03:34AM 49.8690 7.8650 113° Southeast 234 269 9,000 -1,200 Descending FlightAware
03:35AM 49.8770 7.9130 75° East 223 257 8,600 -780 Descending FlightAware
03:35AM 49.8860 7.9500 69° East 222 255 8,300 -1,200 Descending FlightAware
03:35AM 49.8970 7.9960 70° East 214 246 7,500 -1,320 Descending FlightAware
03:36AM 49.9070 8.0350 68° East 198 228 7,000 -1,020 Descending FlightAware
03:36AM 49.9140 8.0660 71° East 188 216 6,600 -1,020 Descending FlightAware
03:37AM 49.9240 8.1060 69° East 181 208 6,100 -1,080 Descending FlightAware
03:37AM 49.9290 8.1240 67° East 179 206 5,800 -900 Descending FlightAware
03:38AM 49.9350 8.1500 70° East 177 204 5,500 -900 Descending FlightAware
03:38AM 49.9380 8.1650 73° East 174 200 5,300 -1,080 Descending FlightAware
03:38AM 49.9490 8.2060 67° East 171 197 4,700 -1,020 Descending FlightAware
03:39AM 49.9560 8.2370 71° East 171 197 4,300 -720 Descending FlightAware
03:39AM 49.9600 8.2540 70° East 168 193 4,100 -780 Descending FlightAware
03:39AM 49.9660 8.2800 70° East 163 188 3,800 -1,140 Descending FlightAware
03:40AM 49.9760 8.3200 69° East 164 189 3,200 -1,020 Descending FlightAware
03:40AM 49.9820 8.3440 69° East 168 193 2,900 -840 Descending FlightAware
03:41AM 49.9920 8.3840 69° East 172 198 2,400 -900 Descending FlightAware
03:41AM 50.0000 8.4180 70° East 169 194 2,000 -900 Descending FlightAware
03:42AM 50.0100 8.4600 70° East 148 170 1,400 -900 Descending FlightAware
03:42AM 50.0160 8.4860 70° East 148 170 1,000 -840 Descending FlightAware
03:43AM 50.0220 8.5110 70° East 147 169 700 -780 Descending FlightAware
03:43AM 50.0300 8.5440 69° East 145 167 300 -600 Descending FlightAware
03:44AM 50.0320 8.5530 71° East 118 136 300  Level FlightAware
03:44AM 50.0350 8.5650 69° East 80 92 -1,020 Descending FlightAware
03:44AM 50.0370 8.5760 74° East 52 60  Level FlightAware
03:45AM 50.0380 8.5790 63° Northeast 15 17  Level FlightAware
03:46AM 50.0400 8.5790 360° North 24 28  Level FlightAware
03:46AM 50.0420 8.5820 44° Northeast 30 35  Level FlightAware
03:46AM 50.0430 8.5820 360° North 32 37  Level FlightAware
03:47AM 50.0440 8.5810 327° Northwest 16 18  Level FlightAware
03:47AM 50.0460 8.5800 342° North 28 32  Level FlightAware
03:48AM 50.0470 8.5790 327° Northwest 10 12  Level FlightAware
03:49AM 50.0480 8.5780 327° Northwest 16 18  Level FlightAware
03:50AM 50.0480 8.5770 270° West  Level FlightAware
03:52AM 50.0167 8.5667 111° Southeast  Level FlightAware Approximate
03:53AM 50.0264 8.5431 111° Southeast  Level Estimated
03:54AM 50.0264 8.5431 111° Southeast  Level Estimated
03:55AM 50.0264 8.5431 111° Southeast  Level Estimated
03:56AM 50.0264 8.5431 111° Southeast  Level Estimated